Ash Fork, Arizona
Current Conditions -  °F | °C
As of 7:53 PM on Friday 19 Dec 2014 (Local Time) from KPRC Reporting Station
Clear Clear  
Wind Chill: 28°   Ceiling: Unl
Heat Index: 33°   Visibility: 10mi
Dew Point: 26°   Wind: 6mph
Humidity: 75%   Direction: 180°S
Pressure: 30.2"   Gusts: NA
Location:  35.23°N, 112.49°W
Report Text: KPRC 200253Z 18005KT 10SM CLR 01/M03 A3020 RMK AO2 SLP232 T00061033 50008
Loading
Personal Weather Stations






























Interactive Weather Map New forecast layout! Learn more

10-Day Weather Forecast

Advertisements
Track Severe Weather on mobile